sensor_id;sensor_type;location;lat;lon;timestamp;P1;durP1;ratioP1;P2;durP2;ratioP2
57291;SDS011;43144;50.972;18.220;2023-03-26T00:02:23;2.70;;;2.50;;
57291;SDS011;43144;50.972;18.220;2023-03-26T00:12:12;2.50;;;2.40;;
57291;SDS011;43144;50.972;18.220;2023-03-26T00:22:02;3.80;;;3.00;;
57291;SDS011;43144;50.972;18.220;2023-03-26T00:29:27;4.70;;;4.20;;
57291;SDS011;43144;50.972;18.220;2023-03-26T00:39:17;3.70;;;3.50;;
57291;SDS011;43144;50.972;18.220;2023-03-26T00:49:06;9.20;;;4.10;;
57291;SDS011;43144;50.972;18.220;2023-03-26T00:58:55;2.50;;;2.40;;
57291;SDS011;43144;50.972;18.220;2023-03-26T01:08:47;4.60;;;4.30;;
57291;SDS011;43144;50.972;18.220;2023-03-26T01:18:43;3.50;;;3.30;;
57291;SDS011;43144;50.972;18.220;2023-03-26T01:28:53;9.10;;;3.80;;
57291;SDS011;43144;50.972;18.220;2023-03-26T01:38:50;2.80;;;2.60;;
57291;SDS011;43144;50.972;18.220;2023-03-26T01:48:46;3.80;;;3.50;;
57291;SDS011;43144;50.972;18.220;2023-03-26T01:58:50;2.40;;;2.20;;
57291;SDS011;43144;50.972;18.220;2023-03-26T02:08:50;0.80;;;0.80;;
57291;SDS011;43144;50.972;18.220;2023-03-26T02:18:42;5.90;;;4.10;;
57291;SDS011;43144;50.972;18.220;2023-03-26T02:28:33;1.90;;;1.80;;
57291;SDS011;43144;50.972;18.220;2023-03-26T02:38:24;3.00;;;2.70;;
57291;SDS011;43144;50.972;18.220;2023-03-26T02:48:14;1.80;;;1.70;;
57291;SDS011;43144;50.972;18.220;2023-03-26T02:58:04;2.70;;;2.50;;
57291;SDS011;43144;50.972;18.220;2023-03-26T03:07:53;2.30;;;2.20;;
57291;SDS011;43144;50.972;18.220;2023-03-26T03:17:42;3.90;;;3.10;;
57291;SDS011;43144;50.972;18.220;2023-03-26T03:27:34;5.60;;;2.50;;
57291;SDS011;43144;50.972;18.220;2023-03-26T03:37:25;2.70;;;2.50;;
57291;SDS011;43144;50.972;18.220;2023-03-26T03:47:14;3.20;;;2.90;;
57291;SDS011;43144;50.972;18.220;2023-03-26T03:57:03;1.80;;;1.70;;
57291;SDS011;43144;50.972;18.220;2023-03-26T04:06:52;3.00;;;2.80;;
57291;SDS011;43144;50.972;18.220;2023-03-26T04:16:41;5.90;;;3.30;;
57291;SDS011;43144;50.972;18.220;2023-03-26T04:26:31;2.10;;;1.70;;
57291;SDS011;43144;50.972;18.220;2023-03-26T04:36:23;1.80;;;1.70;;
57291;SDS011;43144;50.972;18.220;2023-03-26T04:46:14;2.80;;;2.60;;
57291;SDS011;43144;50.972;18.220;2023-03-26T04:56:08;2.80;;;2.60;;
57291;SDS011;43144;50.972;18.220;2023-03-26T05:06:03;2.50;;;2.30;;
57291;SDS011;43144;50.972;18.220;2023-03-26T05:15:53;12.70;;;2.40;;
57291;SDS011;43144;50.972;18.220;2023-03-26T05:25:42;3.50;;;3.20;;
57291;SDS011;43144;50.972;18.220;2023-03-26T05:35:31;5.10;;;4.70;;
57291;SDS011;43144;50.972;18.220;2023-03-26T05:45:20;4.40;;;3.70;;
57291;SDS011;43144;50.972;18.220;2023-03-26T05:55:10;2.50;;;2.30;;
57291;SDS011;43144;50.972;18.220;2023-03-26T06:05:00;2.60;;;2.30;;
57291;SDS011;43144;50.972;18.220;2023-03-26T06:14:53;4.20;;;3.00;;
57291;SDS011;43144;50.972;18.220;2023-03-26T06:24:44;2.80;;;2.60;;
57291;SDS011;43144;50.972;18.220;2023-03-26T06:34:33;3.40;;;2.00;;
57291;SDS011;43144;50.972;18.220;2023-03-26T06:44:22;4.30;;;1.50;;
57291;SDS011;43144;50.972;18.220;2023-03-26T06:54:12;2.80;;;1.60;;
57291;SDS011;43144;50.972;18.220;2023-03-26T07:04:01;3.80;;;2.30;;
57291;SDS011;43144;50.972;18.220;2023-03-26T07:13:51;3.00;;;2.80;;
57291;SDS011;43144;50.972;18.220;2023-03-26T07:23:41;2.60;;;1.70;;
57291;SDS011;43144;50.972;18.220;2023-03-26T07:33:43;2.30;;;2.10;;
57291;SDS011;43144;50.972;18.220;2023-03-26T07:43:47;4.60;;;3.70;;
57291;SDS011;43144;50.972;18.220;2023-03-26T07:53:52;3.10;;;2.50;;
57291;SDS011;43144;50.972;18.220;2023-03-26T08:14:26;4.20;;;2.50;;
57291;SDS011;43144;50.972;18.220;2023-03-26T08:24:32;5.20;;;4.70;;
57291;SDS011;43144;50.972;18.220;2023-03-26T08:34:31;4.70;;;4.30;;
57291;SDS011;43144;50.972;18.220;2023-03-26T08:55:56;9.40;;;5.10;;
57291;SDS011;43144;50.972;18.220;2023-03-26T09:04:04;2.70;;;2.50;;
57291;SDS011;43144;50.972;18.220;2023-03-26T09:14:59;3.30;;;3.10;;
57291;SDS011;43144;50.972;18.220;2023-03-26T09:25:32;3.80;;;3.20;;
57291;SDS011;43144;50.972;18.220;2023-03-26T09:36:26;1.90;;;1.80;;
57291;SDS011;43144;50.972;18.220;2023-03-26T09:46:48;8.80;;;3.30;;
57291;SDS011;43144;50.972;18.220;2023-03-26T09:57:17;0.50;;;0.50;;
57291;SDS011;43144;50.972;18.220;2023-03-26T10:07:46;1.50;;;1.40;;
57291;SDS011;43144;50.972;18.220;2023-03-26T10:17:53;2.80;;;2.50;;
57291;SDS011;43144;50.972;18.220;2023-03-26T10:28:12;3.10;;;2.80;;
57291;SDS011;43144;50.972;18.220;2023-03-26T10:38:27;3.20;;;2.60;;
57291;SDS011;43144;50.972;18.220;2023-03-26T10:59:01;3.90;;;3.60;;
57291;SDS011;43144;50.972;18.220;2023-03-26T11:09:05;4.00;;;3.70;;
57291;SDS011;43144;50.972;18.220;2023-03-26T11:19:08;3.70;;;3.40;;
57291;SDS011;43144;50.972;18.220;2023-03-26T11:29:14;9.90;;;2.70;;
57291;SDS011;43144;50.972;18.220;2023-03-26T11:39:22;1.60;;;1.40;;
57291;SDS011;43144;50.972;18.220;2023-03-26T11:49:17;2.60;;;2.50;;
57291;SDS011;43144;50.972;18.220;2023-03-26T11:59:10;4.10;;;3.90;;
57291;SDS011;43144;50.972;18.220;2023-03-26T12:09:16;2.20;;;2.10;;
57291;SDS011;43144;50.972;18.220;2023-03-26T12:19:25;3.40;;;2.70;;
57291;SDS011;43144;50.972;18.220;2023-03-26T12:29:24;3.80;;;3.40;;
57291;SDS011;43144;50.972;18.220;2023-03-26T12:39:27;2.20;;;2.00;;
57291;SDS011;43144;50.972;18.220;2023-03-26T12:49:41;1.90;;;1.80;;
57291;SDS011;43144;50.972;18.220;2023-03-26T12:59:47;4.00;;;3.60;;
57291;SDS011;43144;50.972;18.220;2023-03-26T13:09:57;5.60;;;5.10;;
57291;SDS011;43144;50.972;18.220;2023-03-26T13:20:09;6.80;;;6.20;;
57291;SDS011;43144;50.972;18.220;2023-03-26T13:30:16;3.90;;;3.50;;
57291;SDS011;43144;50.972;18.220;2023-03-26T13:40:20;3.90;;;3.50;;
57291;SDS011;43144;50.972;18.220;2023-03-26T13:50:22;1.80;;;1.70;;
57291;SDS011;43144;50.972;18.220;2023-03-26T14:00:17;2.80;;;2.60;;
57291;SDS011;43144;50.972;18.220;2023-03-26T14:10:16;3.60;;;3.30;;
57291;SDS011;43144;50.972;18.220;2023-03-26T14:15:19;5.20;;;4.80;;
57291;SDS011;43144;50.972;18.220;2023-03-26T14:25:36;5.30;;;4.80;;
57291;SDS011;43144;50.972;18.220;2023-03-26T14:35:53;7.00;;;5.20;;
57291;SDS011;43144;50.972;18.220;2023-03-26T14:43:38;7.60;;;6.90;;
57291;SDS011;43144;50.972;18.220;2023-03-26T14:54:27;6.00;;;5.50;;
57291;SDS011;43144;50.972;18.220;2023-03-26T15:05:21;11.30;;;9.40;;
57291;SDS011;43144;50.972;18.220;2023-03-26T15:16:25;2.40;;;1.70;;
57291;SDS011;43144;50.972;18.220;2023-03-26T15:27:19;8.00;;;7.40;;
57291;SDS011;43144;50.972;18.220;2023-03-26T15:38:14;8.50;;;7.70;;
57291;SDS011;43144;50.972;18.220;2023-03-26T15:56:21;12.30;;;10.30;;
57291;SDS011;43144;50.972;18.220;2023-03-26T16:06:28;8.80;;;7.90;;
57291;SDS011;43144;50.972;18.220;2023-03-26T16:16:51;8.10;;;7.40;;
57291;SDS011;43144;50.972;18.220;2023-03-26T16:27:04;39.60;;;32.10;;
57291;SDS011;43144;50.972;18.220;2023-03-26T16:38:04;12.80;;;11.40;;
57291;SDS011;43144;50.972;18.220;2023-03-26T16:48:01;9.90;;;9.10;;
57291;SDS011;43144;50.972;18.220;2023-03-26T16:58:04;10.60;;;7.50;;
57291;SDS011;43144;50.972;18.220;2023-03-26T17:08:23;4.40;;;4.00;;
57291;SDS011;43144;50.972;18.220;2023-03-26T17:18:28;8.10;;;5.20;;
57291;SDS011;43144;50.972;18.220;2023-03-26T17:38:54;2.70;;;2.50;;
57291;SDS011;43144;50.972;18.220;2023-03-26T17:49:19;3.90;;;3.50;;
57291;SDS011;43144;50.972;18.220;2023-03-26T17:59:18;16.90;;;14.50;;
57291;SDS011;43144;50.972;18.220;2023-03-26T18:09:20;21.40;;;17.00;;
57291;SDS011;43144;50.972;18.220;2023-03-26T18:19:45;19.00;;;16.10;;
57291;SDS011;43144;50.972;18.220;2023-03-26T18:29:43;66.10;;;38.10;;
57291;SDS011;43144;50.972;18.220;2023-03-26T18:39:42;23.70;;;21.30;;
57291;SDS011;43144;50.972;18.220;2023-03-26T18:49:46;54.50;;;36.00;;
57291;SDS011;43144;50.972;18.220;2023-03-26T18:59:42;26.90;;;23.30;;
57291;SDS011;43144;50.972;18.220;2023-03-26T19:09:32;20.00;;;15.70;;
57291;SDS011;43144;50.972;18.220;2023-03-26T19:19:26;21.00;;;18.90;;
57291;SDS011;43144;50.972;18.220;2023-03-26T19:29:22;10.10;;;9.10;;
57291;SDS011;43144;50.972;18.220;2023-03-26T19:39:32;11.30;;;10.20;;
57291;SDS011;43144;50.972;18.220;2023-03-26T19:49:30;7.60;;;7.00;;
57291;SDS011;43144;50.972;18.220;2023-03-26T19:59:24;11.60;;;10.90;;
57291;SDS011;43144;50.972;18.220;2023-03-26T20:09:14;9.00;;;8.30;;
57291;SDS011;43144;50.972;18.220;2023-03-26T20:19:07;10.10;;;9.40;;
57291;SDS011;43144;50.972;18.220;2023-03-26T20:29:01;10.20;;;9.30;;
57291;SDS011;43144;50.972;18.220;2023-03-26T20:38:49;9.80;;;9.10;;
57291;SDS011;43144;50.972;18.220;2023-03-26T20:48:40;32.20;;;26.10;;
57291;SDS011;43144;50.972;18.220;2023-03-26T20:58:30;9.10;;;8.40;;
57291;SDS011;43144;50.972;18.220;2023-03-26T21:08:21;11.40;;;10.40;;
57291;SDS011;43144;50.972;18.220;2023-03-26T21:18:14;9.90;;;9.10;;
57291;SDS011;43144;50.972;18.220;2023-03-26T21:28:13;13.80;;;10.10;;
57291;SDS011;43144;50.972;18.220;2023-03-26T21:38:10;10.60;;;9.80;;
57291;SDS011;43144;50.972;18.220;2023-03-26T21:48:07;15.10;;;13.60;;
57291;SDS011;43144;50.972;18.220;2023-03-26T21:58:13;13.10;;;12.00;;
57291;SDS011;43144;50.972;18.220;2023-03-26T22:08:18;16.30;;;14.80;;
57291;SDS011;43144;50.972;18.220;2023-03-26T22:18:11;25.60;;;22.90;;
57291;SDS011;43144;50.972;18.220;2023-03-26T22:28:01;11.50;;;10.60;;
57291;SDS011;43144;50.972;18.220;2023-03-26T22:35:24;13.40;;;12.10;;
57291;SDS011;43144;50.972;18.220;2023-03-26T22:45:13;11.90;;;10.90;;
57291;SDS011;43144;50.972;18.220;2023-03-26T22:55:03;11.80;;;10.60;;
57291;SDS011;43144;50.972;18.220;2023-03-26T23:04:53;18.20;;;12.60;;
57291;SDS011;43144;50.972;18.220;2023-03-26T23:14:42;28.00;;;17.30;;
57291;SDS011;43144;50.972;18.220;2023-03-26T23:22:04;33.90;;;29.10;;
57291;SDS011;43144;50.972;18.220;2023-03-26T23:31:53;27.20;;;18.90;;
57291;SDS011;43144;50.972;18.220;2023-03-26T23:41:42;15.50;;;13.60;;
57291;SDS011;43144;50.972;18.220;2023-03-26T23:51:31;19.20;;;17.40;;
